Time;durP1;ratioP1;P1;durP2;ratioP2;P2;SDS_P1;SDS_P2;PMS_P1;PMS_P2;Temp;Humidity;BMP_temperature;BMP_pressure;BME280_temperature;BME280_humidity;BME280_pressure;Samples;Min_cycle;Max_cycle;Signal;HPM_P1;HPM_P2
2022/08/30 00:02:47;;;;;;;;;;;;;;;29.06;43.36;99297.47;4431709;32;35125;-83
2022/08/30 00:05:15;;;;;;;;;;;;;;;29.04;43.38;99296.69;4453813;32;34162;-83
2022/08/30 00:07:42;;;;;;;;;;;;;;;29.15;43.17;99301.38;4464981;32;34407;-87
2022/08/30 00:10:10;;;;;;;;;;;;;;;29.53;42.10;99301.66;4465713;32;34206;-85
2022/08/30 00:12:37;;;;;;;;;;;;;;;29.46;42.39;99300.31;4454755;32;34884;-83
2022/08/30 00:15:05;;;;;;;;;;;;;;;29.27;42.63;99299.78;4453578;32;33828;-87
2022/08/30 00:17:35;;;;;;;;;;;;;;;29.85;41.42;99301.44;4464211;32;34466;-88
2022/08/30 00:20:06;;;;;;;;;;;;;;;29.74;41.56;99301.31;4467117;32;34111;-87
2022/08/30 00:22:33;;;;;;;;;;;;;;;28.59;44.09;99298.47;4465878;32;35246;-89
2022/08/30 00:25:01;;;;;;;;;;;;;;;28.76;43.61;99300.16;4466882;32;34196;-82
2022/08/30 00:27:28;;;;;;;;;;;;;;;29.61;41.80;99303.03;4456111;32;33607;-83
2022/08/30 00:29:56;;;;;;;;;;;;;;;29.44;42.03;99301.41;4437689;32;34876;-83
2022/08/30 00:32:23;;;;;;;;;;;;;;;29.45;42.14;99305.78;4453919;32;35315;-82
2022/08/30 00:34:51;;;;;;;;;;;;;;;29.77;41.10;99299.25;4451855;32;34032;-86
2022/08/30 00:37:18;;;;;;;;;;;;;;;29.05;42.57;99298.41;4452078;32;33400;-89
2022/08/30 00:39:46;;;;;;;;;;;;;;;29.69;41.34;99301.56;4449210;32;34896;-83
2022/08/30 00:42:14;;;;;;;;;;;;;;;29.94;40.84;99306.22;4461920;32;34609;-86
2022/08/30 00:44:41;;;;;;;;;;;;;;;30.09;40.35;99303.50;4458941;32;34818;-82
2022/08/30 00:47:09;;;;;;;;;;;;;;;28.53;43.41;99306.87;4451941;32;33665;-83
2022/08/30 00:49:36;;;;;;;;;;;;;;;28.02;44.44;99311.53;4452458;32;34281;-86
2022/08/30 00:52:04;;;;;;;;;;;;;;;28.55;43.54;99304.94;4448572;32;35031;-88
2022/08/30 00:54:32;;;;;;;;;;;;;;;28.61;42.96;99304.59;4449477;32;34568;-84
2022/08/30 00:56:59;;;;;;;;;;;;;;;29.24;41.90;99307.97;4444877;32;34443;-89
2022/08/30 00:59:27;;;;;;;;;;;;;;;29.58;41.12;99304.94;4458357;32;34261;-86
2022/08/30 01:01:55;;;;;;;;;;;;;;;29.55;40.83;99299.78;4453726;32;35321;-84
2022/08/30 01:04:23;;;;;;;;;;;;;;;29.45;41.09;99306.63;4466166;32;34109;-85
2022/08/30 01:06:50;;;;;;;;;;;;;;;29.40;41.04;99302.53;4462328;32;33277;-84
2022/08/30 01:09:18;;;;;;;;;;;;;;;29.80;40.25;99303.56;4462297;32;33644;-82
2022/08/30 01:11:45;;;;;;;;;;;;;;;29.70;40.11;99302.44;4461689;32;34842;-81
2022/08/30 01:14:12;;;;;;;;;;;;;;;29.45;40.29;99295.09;4466775;32;34179;-81
2022/08/30 01:16:41;;;;;;;;;;;;;;;29.99;39.40;99298.75;4464563;32;34319;-87
2022/08/30 01:19:12;;;;;;;;;;;;;;;29.14;41.16;99291.66;4439147;32;34235;-86
2022/08/30 01:21:47;;;;;;;;;;;;;;;28.87;41.73;99291.50;4442127;32;34594;-83
2022/08/30 01:24:14;;;;;;;;;;;;;;;29.45;40.53;99287.94;4445678;32;35360;-83
2022/08/30 01:26:41;;;;;;;;;;;;;;;28.98;41.50;99294.44;4457761;32;33594;-84
2022/08/30 01:29:10;;;;;;;;;;;;;;;26.95;46.28;99298.69;4466489;32;34177;-83
2022/08/30 01:31:37;;;;;;;;;;;;;;;28.23;43.05;99292.63;4444392;32;34301;-83
2022/08/30 01:34:06;;;;;;;;;;;;;;;28.68;42.00;99294.44;4451970;32;34482;-82
2022/08/30 01:36:36;;;;;;;;;;;;;;;28.44;42.30;99294.06;4450900;32;34412;-83
2022/08/30 01:39:15;;;;;;;;;;;;;;;28.75;41.77;99286.91;4439650;32;34291;-89
2022/08/30 01:41:43;;;;;;;;;;;;;;;29.03;41.31;99294.13;4455241;32;34077;-82
2022/08/30 01:44:10;;;;;;;;;;;;;;;28.79;41.58;99288.44;4465127;32;34389;-84
2022/08/30 01:46:45;;;;;;;;;;;;;;;28.33;42.68;99294.63;4461742;32;34280;-83
2022/08/30 01:49:13;;;;;;;;;;;;;;;28.82;41.71;99285.56;4442732;32;33811;-83
2022/08/30 01:51:41;;;;;;;;;;;;;;;29.01;41.44;99283.53;4440769;32;34288;-84
2022/08/30 01:54:08;;;;;;;;;;;;;;;29.15;41.09;99284.50;4457388;32;34218;-83
2022/08/30 01:56:35;;;;;;;;;;;;;;;29.30;40.81;99284.41;4463885;32;33284;-83
2022/08/30 01:59:03;;;;;;;;;;;;;;;29.58;40.29;99280.03;4442666;32;34335;-87
2022/08/30 02:01:31;;;;;;;;;;;;;;;29.72;39.89;99280.00;4455568;32;34351;-88
2022/08/30 02:03:59;;;;;;;;;;;;;;;29.77;39.86;99279.69;4443722;32;34315;-89
2022/08/30 02:06:27;;;;;;;;;;;;;;;29.04;41.08;99270.00;4447401;32;33640;-83
2022/08/30 02:08:54;;;;;;;;;;;;;;;29.50;40.23;99280.47;4450469;32;34116;-88
2022/08/30 02:11:22;;;;;;;;;;;;;;;29.57;40.17;99276.50;4468325;32;35203;-89
2022/08/30 02:13:49;;;;;;;;;;;;;;;29.78;39.58;99278.78;4457093;32;34475;-89
2022/08/30 02:16:18;;;;;;;;;;;;;;;29.90;39.45;99275.28;4451199;32;33517;-82
2022/08/30 02:18:46;;;;;;;;;;;;;;;29.97;39.25;99271.28;4452687;32;34918;-88
2022/08/30 02:21:13;;;;;;;;;;;;;;;30.06;38.98;99262.63;4458661;32;34313;-84
2022/08/30 02:23:41;;;;;;;;;;;;;;;29.94;39.14;99274.12;4460706;32;34551;-82
2022/08/30 02:26:08;;;;;;;;;;;;;;;30.19;38.68;99267.19;4456804;32;33741;-90
2022/08/30 02:28:36;;;;;;;;;;;;;;;30.06;38.87;99277.81;4454938;32;34246;-88
2022/08/30 02:31:19;;;;;;;;;;;;;;;29.96;39.11;99276.69;4446111;32;34318;-84
2022/08/30 02:33:49;;;;;;;;;;;;;;;30.02;38.86;99270.97;4456422;32;34094;-83
2022/08/30 02:36:16;;;;;;;;;;;;;;;29.87;39.17;99283.50;4465160;32;33374;-88
2022/08/30 02:38:45;;;;;;;;;;;;;;;29.86;39.13;99281.81;4459361;32;35066;-83
2022/08/30 02:41:12;;;;;;;;;;;;;;;29.73;39.34;99275.53;4468377;32;34547;-84
2022/08/30 02:43:39;;;;;;;;;;;;;;;29.74;39.39;99277.25;4458354;32;35266;-89
2022/08/30 02:46:07;;;;;;;;;;;;;;;29.81;39.15;99273.19;4455705;32;33701;-83
2022/08/30 02:48:34;;;;;;;;;;;;;;;29.74;39.34;99277.25;4466779;32;34085;-88
2022/08/30 02:51:06;;;;;;;;;;;;;;;29.65;39.52;99281.34;4465470;32;35182;-84
2022/08/30 02:53:38;;;;;;;;;;;;;;;29.63;39.56;99282.44;4444908;32;34247;-86
2022/08/30 02:56:05;;;;;;;;;;;;;;;29.52;39.76;99283.94;4457086;32;33442;-84
2022/08/30 02:58:32;;;;;;;;;;;;;;;29.46;39.89;99284.31;4463441;32;33686;-91
2022/08/30 03:01:00;;;;;;;;;;;;;;;29.53;39.70;99269.59;4466369;32;34913;-87
2022/08/30 03:03:28;;;;;;;;;;;;;;;29.73;39.23;99275.53;4456750;32;34213;-90
2022/08/30 03:05:55;;;;;;;;;;;;;;;29.48;39.83;99274.41;4453721;32;33734;-88
2022/08/30 03:08:22;;;;;;;;;;;;;;;29.46;39.73;99272.75;4455210;32;34109;-90
2022/08/30 03:10:50;;;;;;;;;;;;;;;29.48;39.71;99274.41;4482674;32;34199;-85
2022/08/30 03:13:17;;;;;;;;;;;;;;;29.55;39.61;99278.41;4452146;32;34857;-89
2022/08/30 03:15:44;;;;;;;;;;;;;;;29.39;39.98;99274.97;4452007;32;34486;-89
2022/08/30 03:18:11;;;;;;;;;;;;;;;29.33;40.10;99284.22;4452486;32;34068;-90
2022/08/30 03:20:39;;;;;;;;;;;;;;;29.42;39.88;99277.44;4451805;32;34308;-87
2022/08/30 03:23:09;;;;;;;;;;;;;;;29.33;40.06;99283.38;4460935;32;35237;-89
2022/08/30 03:25:47;;;;;;;;;;;;;;;29.31;40.13;99286.13;4452396;32;34588;-90
2022/08/30 03:28:15;;;;;;;;;;;;;;;29.24;40.33;99289.28;4459917;32;33365;-90
2022/08/30 03:30:42;;;;;;;;;;;;;;;29.30;40.17;99287.09;4467361;32;33866;-90
2022/08/30 03:33:11;;;;;;;;;;;;;;;29.23;40.34;99298.25;4463665;32;34149;-90
2022/08/30 03:35:42;;;;;;;;;;;;;;;29.02;40.85;99289.75;4464770;32;33331;-89
2022/08/30 03:38:09;;;;;;;;;;;;;;;28.79;41.40;99305.31;4454265;32;34255;-89
2022/08/30 03:40:37;;;;;;;;;;;;;;;29.08;40.73;99300.03;4466346;32;35240;-89
2022/08/30 03:43:04;;;;;;;;;;;;;;;29.08;40.52;99305.38;4455835;32;34552;-90
2022/08/30 03:45:32;;;;;;;;;;;;;;;28.79;41.09;99307.09;4464788;32;33582;-88
2022/08/30 03:48:01;;;;;;;;;;;;;;;28.62;41.71;99316.97;4461496;32;33673;-89
2022/08/30 03:50:29;;;;;;;;;;;;;;;28.80;41.39;99317.72;4438222;32;34414;-87
2022/08/30 03:52:56;;;;;;;;;;;;;;;28.79;41.19;99307.09;4440644;32;34493;-89
2022/08/30 03:55:25;;;;;;;;;;;;;;;28.81;41.06;99308.75;4446839;32;33047;-90
2022/08/30 03:57:52;;;;;;;;;;;;;;;28.94;40.75;99306.19;4466601;32;34807;-83
2022/08/30 04:00:20;;;;;;;;;;;;;;;28.82;41.01;99317.59;4453240;32;35217;-83
2022/08/30 04:02:47;;;;;;;;;;;;;;;28.80;41.00;99316.84;4466254;32;35252;-90
2022/08/30 04:05:14;;;;;;;;;;;;;;;28.67;41.33;99308.69;4458817;32;33679;-83
2022/08/30 04:07:44;;;;;;;;;;;;;;;28.89;40.70;99310.09;4455931;32;34650;-83
2022/08/30 04:10:12;;;;;;;;;;;;;;;28.82;40.84;99318.44;4463247;32;34556;-88
2022/08/30 04:12:39;;;;;;;;;;;;;;;28.69;41.18;99322.81;4462834;32;34290;-82
2022/08/30 04:15:09;;;;;;;;;;;;;;;28.64;41.32;99326.69;4465716;32;33348;-82
2022/08/30 04:17:36;;;;;;;;;;;;;;;28.74;41.15;99334.06;4466062;32;34719;-83
2022/08/30 04:20:04;;;;;;;;;;;;;;;28.62;41.33;99332.97;4471641;32;33837;-88
2022/08/30 04:22:31;;;;;;;;;;;;;;;28.40;41.92;99337.84;4452968;32;34033;-86
2022/08/30 04:24:58;;;;;;;;;;;;;;;27.99;42.24;99346.34;4456131;32;32499;-85
2022/08/30 04:27:26;;;;;;;;;;;;;;;28.44;41.56;99346.53;4451672;32;33713;-88
2022/08/30 04:29:55;;;;;;;;;;;;;;;28.55;41.42;99344.97;4465210;32;34406;-85
2022/08/30 04:32:22;;;;;;;;;;;;;;;28.71;41.01;99349.41;4461088;32;34261;-83
2022/08/30 04:34:49;;;;;;;;;;;;;;;28.89;40.80;99353.66;4430327;32;874169;-86
2022/08/30 04:37:17;;;;;;;;;;;;;;;29.02;40.46;99357.34;4458455;32;33933;-84
2022/08/30 04:39:47;;;;;;;;;;;;;;;29.19;40.36;99356.31;4463240;32;34395;-87
2022/08/30 04:42:14;;;;;;;;;;;;;;;28.58;40.60;99375.94;4466411;32;35214;-85
2022/08/30 04:44:42;;;;;;;;;;;;;;;27.26;43.49;99380.47;4455760;32;33728;-83
2022/08/30 04:47:09;;;;;;;;;;;;;;;27.72;42.54;99379.81;4451830;32;34144;-85
2022/08/30 04:49:36;;;;;;;;;;;;;;;28.06;40.46;99378.88;4467202;32;34584;-89
2022/08/30 04:52:05;;;;;;;;;;;;;;;27.09;42.44;99380.47;4462264;32;33526;-90
2022/08/30 04:54:32;;;;;;;;;;;;;;;26.49;43.50;99386.13;4462341;32;33731;-88
2022/08/30 04:57:00;;;;;;;;;;;;;;;26.16;44.21;99384.13;4454823;32;35481;-91
2022/08/30 04:59:27;;;;;;;;;;;;;;;26.50;43.84;99387.84;4464803;32;35033;-87
2022/08/30 05:01:55;;;;;;;;;;;;;;;26.27;43.76;99391.59;4460955;32;34564;-88
2022/08/30 05:04:25;;;;;;;;;;;;;;;26.80;42.71;99384.63;4451512;32;34245;-89
2022/08/30 05:06:52;;;;;;;;;;;;;;;27.06;42.48;99385.94;4459018;32;34254;-89
2022/08/30 05:09:20;;;;;;;;;;;;;;;27.01;42.16;99390.63;4466423;32;34242;-90
2022/08/30 05:11:47;;;;;;;;;;;;;;;27.38;41.62;99387.81;4458874;32;34564;-95
2022/08/30 05:14:14;;;;;;;;;;;;;;;27.22;42.24;99388.72;4445578;32;33081;-95
2022/08/30 05:16:42;;;;;;;;;;;;;;;27.20;42.44;99394.13;4462905;32;35010;-96
2022/08/30 05:19:09;;;;;;;;;;;;;;;27.57;41.97;99392.16;4467234;32;34339;-96
2022/08/30 05:21:39;;;;;;;;;;;;;;;27.75;41.63;99398.34;4477859;32;34289;-92
2022/08/30 05:24:08;;;;;;;;;;;;;;;26.42;44.58;99400.63;4450208;32;34924;-94
2022/08/30 05:26:36;;;;;;;;;;;;;;;26.56;44.57;99395.53;4475365;32;33928;-95
2022/08/30 05:29:04;;;;;;;;;;;;;;;27.13;43.55;99393.56;4458876;32;34601;-90
2022/08/30 05:31:32;;;;;;;;;;;;;;;26.77;44.69;99400.72;4452335;32;35341;-94
2022/08/30 05:34:00;;;;;;;;;;;;;;;28.13;41.93;99398.91;4450154;32;33316;-95
2022/08/30 05:36:29;;;;;;;;;;;;;;;28.55;41.40;99397.44;4454831;32;34708;-94
2022/08/30 05:38:56;;;;;;;;;;;;;;;28.62;41.48;99404.16;4448936;32;35283;-86
2022/08/30 05:41:24;;;;;;;;;;;;;;;29.13;40.43;99393.19;4451356;32;34444;-96
2022/08/30 05:43:54;;;;;;;;;;;;;;;28.71;39.58;99398.28;4451369;32;34365;-93
2022/08/30 05:46:21;;;;;;;;;;;;;;;28.86;39.46;99391.19;4465855;32;35224;-96
2022/08/30 05:48:49;;;;;;;;;;;;;;;27.81;41.32;99400.69;4466522;32;34138;-92
2022/08/30 05:51:17;;;;;;;;;;;;;;;28.14;41.00;99403.28;4464290;32;34370;-94
2022/08/30 05:53:46;;;;;;;;;;;;;;;28.50;40.29;99400.38;4454308;32;34309;-89
2022/08/30 05:56:14;;;;;;;;;;;;;;;27.77;41.28;99404.44;4451105;32;34966;-88
2022/08/30 05:58:41;;;;;;;;;;;;;;;28.43;39.93;99404.34;4464272;32;34497;-87
2022/08/30 06:01:38;;;;;;;;;;;;;;;27.59;41.52;99406.28;4465207;32;34387;-88
2022/08/30 06:04:07;;;;;;;;;;;;;;;27.87;40.95;99405.66;4441396;32;33423;-87
2022/08/30 06:06:35;;;;;;;;;;;;;;;26.32;43.47;99407.31;4449805;32;34670;-87
2022/08/30 06:09:03;;;;;;;;;;;;;;;26.69;41.85;99409.94;4452064;32;35289;-87
2022/08/30 06:11:32;;;;;;;;;;;;;;;26.17;42.35;99411.56;4475225;32;34356;-87
2022/08/30 06:14:00;;;;;;;;;;;;;;;26.43;42.20;99412.97;4454514;32;33647;-87
2022/08/30 06:16:27;;;;;;;;;;;;;;;26.87;40.71;99412.63;4443789;32;34124;-87
2022/08/30 06:18:56;;;;;;;;;;;;;;;26.45;41.58;99421.75;4450659;32;34242;-87
2022/08/30 06:21:25;;;;;;;;;;;;;;;26.97;41.28;99423.66;4442098;32;35143;-87
2022/08/30 06:23:53;;;;;;;;;;;;;;;27.33;40.61;99424.47;4465707;32;33557;-88
2022/08/30 06:26:20;;;;;;;;;;;;;;;27.72;39.43;99412.66;4449384;32;34673;-86
2022/08/30 06:28:48;;;;;;;;;;;;;;;27.38;39.73;99413.56;4460894;32;34573;-88
2022/08/30 06:31:16;;;;;;;;;;;;;;;27.34;39.96;99418.19;4453189;32;34484;-88
2022/08/30 06:33:44;;;;;;;;;;;;;;;26.92;41.21;99418.56;4463017;32;33415;-87
2022/08/30 06:36:12;;;;;;;;;;;;;;;28.01;38.56;99423.56;4465165;32;33709;-88
2022/08/30 06:38:40;;;;;;;;;;;;;;;28.56;36.81;99412.50;4460188;32;34154;-85
2022/08/30 06:41:08;;;;;;;;;;;;;;;27.95;37.95;99419.44;4439005;32;34029;-87
2022/08/30 06:43:36;;;;;;;;;;;;;;;28.01;38.34;99426.25;4464147;32;33602;-85
2022/08/30 06:46:03;;;;;;;;;;;;;;;28.46;37.85;99417.50;4472948;32;34830;-87
2022/08/30 06:48:31;;;;;;;;;;;;;;;27.40;38.64;99417.03;4457646;32;34516;-87
2022/08/30 06:50:58;;;;;;;;;;;;;;;27.45;38.58;99414.97;4466929;32;35313;-87
2022/08/30 06:53:26;;;;;;;;;;;;;;;27.78;38.57;99416.84;4467973;32;34306;-86
2022/08/30 06:55:57;;;;;;;;;;;;;;;28.58;36.74;99418.62;4466236;32;33918;-87
2022/08/30 06:58:24;;;;;;;;;;;;;;;28.30;36.97;99421.97;4453355;32;34379;-84
2022/08/30 07:00:51;;;;;;;;;;;;;;;28.70;36.74;99417.06;4452594;32;34619;-86
2022/08/30 07:03:19;;;;;;;;;;;;;;;29.12;35.89;99426.19;4452429;32;33048;-86
2022/08/30 07:05:47;;;;;;;;;;;;;;;28.95;35.42;99430.69;4463569;32;34282;-84
2022/08/30 07:08:15;;;;;;;;;;;;;;;27.76;38.07;99430.22;4439645;32;34223;-88
2022/08/30 07:10:44;;;;;;;;;;;;;;;28.39;37.02;99429.47;4457639;32;33816;-87
2022/08/30 07:13:11;;;;;;;;;;;;;;;29.05;36.45;99429.22;4468126;32;34542;-85
2022/08/30 07:15:39;;;;;;;;;;;;;;;28.89;36.39;99436.37;4460889;32;34950;-84
2022/08/30 07:20:53;;;;;;;;;;;;;;;28.12;37.24;99442.50;4467082;32;34323;-88
2022/08/30 07:23:21;;;;;;;;;;;;;;;28.03;38.27;99438.50;4461141;32;33226;-84
2022/08/30 07:25:49;;;;;;;;;;;;;;;28.38;37.11;99438.44;4452313;32;34320;-85
2022/08/30 07:28:16;;;;;;;;;;;;;;;27.41;39.26;99435.59;4452590;32;35309;-85
2022/08/30 07:30:44;;;;;;;;;;;;;;;28.76;37.52;99438.06;4463935;32;34350;-86
2022/08/30 07:33:11;;;;;;;;;;;;;;;28.77;37.71;99440.62;4467406;32;33560;-85
2022/08/30 07:35:38;;;;;;;;;;;;;;;29.43;35.56;99439.41;4460837;32;34925;-87
2022/08/30 07:38:06;;;;;;;;;;;;;;;29.45;35.04;99445.53;4467978;32;33689;-86
2022/08/30 07:40:33;;;;;;;;;;;;;;;29.39;35.30;99445.03;4465143;32;34391;-84
2022/08/30 07:43:01;;;;;;;;;;;;;;;29.62;34.42;99444.53;4457652;32;33312;-87
2022/08/30 07:45:28;;;;;;;;;;;;;;;29.35;35.70;99441.69;4467450;32;35018;-87
2022/08/30 07:47:56;;;;;;;;;;;;;;;29.72;35.74;99435.00;4460805;32;33871;-87
2022/08/30 07:50:23;;;;;;;;;;;;;;;30.00;34.30;99436.81;4457006;32;35512;-86
2022/08/30 07:52:53;;;;;;;;;;;;;;;29.61;34.18;99441.97;4467052;32;33144;-87
2022/08/30 07:55:21;;;;;;;;;;;;;;;29.97;35.02;99433.47;4462147;32;34926;-84
2022/08/30 07:57:48;;;;;;;;;;;;;;;30.36;34.08;99440.81;4467111;32;34253;-83
2022/08/30 08:00:15;;;;;;;;;;;;;;;30.16;33.74;99438.53;4467262;32;34287;-85
2022/08/30 08:02:44;;;;;;;;;;;;;;;30.81;32.86;99436.09;4452810;32;33692;-86
2022/08/30 08:05:13;;;;;;;;;;;;;;;29.70;34.37;99433.38;4466601;32;34394;-85
2022/08/30 08:07:45;;;;;;;;;;;;;;;29.80;34.88;99434.53;4463853;32;34468;-85
2022/08/30 08:10:12;;;;;;;;;;;;;;;29.38;34.02;99441.50;4459318;32;35198;-84
2022/08/30 08:12:39;;;;;;;;;;;;;;;30.41;32.49;99438.69;4454679;32;33292;-86
2022/08/30 08:15:07;;;;;;;;;;;;;;;30.72;31.85;99442.03;4451737;32;34881;-85
2022/08/30 08:17:35;;;;;;;;;;;;;;;31.10;32.05;99435.97;4465037;32;34765;-83
2022/08/30 08:20:02;;;;;;;;;;;;;;;30.97;32.26;99444.81;4463521;32;34083;-87
2022/08/30 08:22:30;;;;;;;;;;;;;;;30.82;32.28;99442.31;4469058;32;33925;-85
2022/08/30 08:24:57;;;;;;;;;;;;;;;31.18;30.66;99444.34;4475689;32;34183;-87
2022/08/30 08:27:24;;;;;;;;;;;;;;;30.07;32.52;99445.28;4464678;32;34002;-88
2022/08/30 08:29:52;;;;;;;;;;;;;;;30.99;31.07;99440.25;4460985;32;34532;-86
2022/08/30 08:32:19;;;;;;;;;;;;;;;31.18;31.32;99453.25;4475987;32;34296;-87
2022/08/30 08:34:46;;;;;;;;;;;;;;;30.61;31.07;99449.91;4483090;32;34070;-85
2022/08/30 08:37:14;;;;;;;;;;;;;;;31.09;30.16;99444.97;4463440;32;33837;-86
2022/08/30 08:39:41;;;;;;;;;;;;;;;31.61;29.98;99450.31;4466821;32;34438;-85
2022/08/30 08:42:11;;;;;;;;;;;;;;;30.41;31.22;99449.38;4466979;32;33496;-85
2022/08/30 08:44:41;;;;;;;;;;;;;;;31.33;30.03;99448.69;4461497;32;35286;-85
2022/08/30 08:47:16;;;;;;;;;;;;;;;30.72;31.15;99447.38;4474927;32;34365;-85
2022/08/30 08:49:45;;;;;;;;;;;;;;;31.42;29.71;99440.00;4480404;32;34591;-86
2022/08/30 08:55:04;;;;;;;;;;;;;;;30.54;31.01;99441.44;4440670;32;33696;-86
2022/08/30 08:57:32;;;;;;;;;;;;;;;31.70;30.24;99435.41;4458758;32;34093;-86
2022/08/30 08:59:59;;;;;;;;;;;;;;;31.53;29.37;99438.41;4480464;32;35271;-85
2022/08/30 09:02:28;;;;;;;;;;;;;;;29.39;33.11;99445.03;4438943;32;33810;-87
2022/08/30 09:04:59;;;;;;;;;;;;;;;30.05;33.17;99445.41;4452444;32;34372;-86
2022/08/30 09:07:29;;;;;;;;;;;;;;;30.49;32.05;99440.84;4470892;32;34458;-86
2022/08/30 09:09:56;;;;;;;;;;;;;;;31.13;30.96;99435.75;4447166;32;35665;-85
2022/08/30 09:12:23;;;;;;;;;;;;;;;31.67;29.86;99431.13;4467060;32;34312;-86
2022/08/30 09:14:52;;;;;;;;;;;;;;;30.93;30.83;99434.44;4465064;32;34054;-85
2022/08/30 09:17:21;;;;;;;;;;;;;;;31.59;29.60;99429.94;4457362;32;34504;-84
2022/08/30 09:19:51;;;;;;;;;;;;;;;30.03;32.73;99428.59;4458834;32;34506;-85
2022/08/30 09:22:20;;;;;;;;;;;;;;;30.08;32.67;99430.09;4451563;32;33510;-86
2022/08/30 09:24:49;;;;;;;;;;;;;;;30.44;32.60;99426.94;4459553;32;34122;-86
2022/08/30 09:27:35;;;;;;;;;;;;;;;31.07;31.63;99414.75;4454035;32;34255;-86
2022/08/30 09:30:05;;;;;;;;;;;;;;;31.88;30.41;99423.41;4460127;32;34588;-84
2022/08/30 09:32:42;;;;;;;;;;;;;;;31.21;31.60;99417.34;4457736;32;33420;-87
2022/08/30 09:35:12;;;;;;;;;;;;;;;30.88;31.38;99418.69;4463281;32;34366;-85
2022/08/30 09:37:40;;;;;;;;;;;;;;;31.57;30.99;99410.44;4463745;32;34390;-85
2022/08/30 09:40:08;;;;;;;;;;;;;;;30.19;32.89;99412.47;4465052;32;33858;-86
2022/08/30 09:42:36;;;;;;;;;;;;;;;30.93;31.42;99403.16;4437771;32;33686;-87
2022/08/30 09:45:09;;;;;;;;;;;;;;;31.95;29.94;99403.25;4441804;32;34879;-86
2022/08/30 09:47:39;;;;;;;;;;;;;;;30.80;31.86;99407.63;4441435;32;34742;-86
2022/08/30 09:50:08;;;;;;;;;;;;;;;31.39;31.32;99402.72;4458238;32;34106;-84
2022/08/30 09:52:47;;;;;;;;;;;;;;;32.25;30.69;99404.69;4455564;32;33261;-84
2022/08/30 09:55:40;;;;;;;;;;;;;;;32.14;29.28;99408.13;4463613;32;33861;-84
2022/08/30 09:58:10;;;;;;;;;;;;;;;32.06;29.71;99402.47;4458094;32;34424;-85
2022/08/30 10:00:46;;;;;;;;;;;;;;;32.20;30.57;99393.41;4452247;32;34514;-86
2022/08/30 10:03:17;;;;;;;;;;;;;;;32.27;30.29;99396.50;4438895;32;33723;-84
2022/08/30 10:06:12;;;;;;;;;;;;;;;31.41;31.93;99381.19;4453091;32;33915;-84
2022/08/30 10:08:43;;;;;;;;;;;;;;;32.27;30.40;99385.78;4444514;32;34907;-84
2022/08/30 10:11:40;;;;;;;;;;;;;;;32.63;29.00;99382.22;4468832;32;34505;-86
2022/08/30 10:14:08;;;;;;;;;;;;;;;32.19;30.86;99392.56;4455532;32;34504;-85
2022/08/30 10:16:38;;;;;;;;;;;;;;;32.25;30.26;99387.72;4464637;32;34990;-86
2022/08/30 10:19:24;;;;;;;;;;;;;;;31.88;30.42;99391.25;4461351;32;34571;-86
2022/08/30 10:22:01;;;;;;;;;;;;;;;31.81;31.19;99389.94;4452754;32;34481;-86
2022/08/30 10:24:33;;;;;;;;;;;;;;;31.73;31.27;99382.44;4439149;32;33552;-87
2022/08/30 10:27:03;;;;;;;;;;;;;;;31.49;31.72;99382.34;4450886;32;34773;-84
2022/08/30 10:29:33;;;;;;;;;;;;;;;31.49;31.51;99387.72;4453843;32;34235;-84
2022/08/30 10:32:03;;;;;;;;;;;;;;;32.03;30.76;99383.91;4443067;32;34879;-86
2022/08/30 10:34:38;;;;;;;;;;;;;;;32.01;30.40;99375.09;4438812;32;33862;-85
2022/08/30 10:37:07;;;;;;;;;;;;;;;32.37;30.14;99376.09;4438781;32;34225;-84
2022/08/30 10:39:40;;;;;;;;;;;;;;;31.09;32.34;99381.53;4452999;32;33402;-86
2022/08/30 10:42:09;;;;;;;;;;;;;;;31.63;30.76;99375.16;4438784;32;34180;-86
2022/08/30 10:44:38;;;;;;;;;;;;;;;31.57;31.22;99375.59;4439325;32;33000;-87
2022/08/30 10:47:10;;;;;;;;;;;;;;;31.42;32.38;99373.03;4439564;32;34153;-89
2022/08/30 10:49:38;;;;;;;;;;;;;;;31.87;31.46;99370.75;4450876;32;34573;-87
2022/08/30 10:52:22;;;;;;;;;;;;;;;32.16;30.80;99365.09;4447859;32;35454;-85
2022/08/30 10:54:53;;;;;;;;;;;;;;;32.16;30.97;99360.59;4455714;32;33748;-84
2022/08/30 10:57:20;;;;;;;;;;;;;;;31.94;31.62;99353.28;4440011;32;34886;-89
2022/08/30 10:59:51;;;;;;;;;;;;;;;31.14;32.21;99349.97;4463682;32;35101;-87
2022/08/30 11:02:22;;;;;;;;;;;;;;;31.85;31.90;99353.91;4450639;32;34004;-82
2022/08/30 11:04:52;;;;;;;;;;;;;;;31.94;30.84;99353.28;4446248;32;33533;-82
2022/08/30 11:07:29;;;;;;;;;;;;;;;32.82;29.75;99350.31;4452490;32;34135;-85
2022/08/30 11:09:59;;;;;;;;;;;;;;;31.91;31.15;99352.63;4466661;32;34404;-88
2022/08/30 11:13:01;;;;;;;;;;;;;;;31.90;30.61;99351.78;4466636;32;33892;-83
2022/08/30 11:15:31;;;;;;;;;;;;;;;31.02;32.41;99351.66;4410665;32;34929;-84
2022/08/30 11:18:07;;;;;;;;;;;;;;;31.49;32.26;99347.53;4449431;32;33901;-87
2022/08/30 11:20:38;;;;;;;;;;;;;;;32.59;29.65;99341.34;4462267;32;35094;-88
2022/08/30 11:23:26;;;;;;;;;;;;;;;32.09;30.44;99340.56;4452296;32;32577;-84
2022/08/30 11:26:04;;;;;;;;;;;;;;;32.28;30.21;99340.06;4453472;32;33783;-84
2022/08/30 11:28:34;;;;;;;;;;;;;;;32.23;30.08;99331.47;4459651;32;35280;-85
2022/08/30 11:31:03;;;;;;;;;;;;;;;32.31;30.53;99328.22;4461031;32;35121;-86
2022/08/30 11:33:55;;;;;;;;;;;;;;;32.20;31.05;99334.38;4467632;32;34536;-84
2022/08/30 11:36:34;;;;;;;;;;;;;;;32.39;31.05;99329.41;4462601;32;33232;-84
2022/08/30 11:39:05;;;;;;;;;;;;;;;32.58;30.32;99323.53;4469504;32;33623;-85
2022/08/30 11:41:35;;;;;;;;;;;;;;;31.65;31.18;99320.47;4452403;32;34432;-84
2022/08/30 11:44:21;;;;;;;;;;;;;;;32.69;29.26;99322.69;4465040;32;34253;-84
2022/08/30 11:46:49;;;;;;;;;;;;;;;32.92;28.97;99318.22;4467753;32;33698;-85
2022/08/30 11:49:17;;;;;;;;;;;;;;;31.96;29.55;99315.59;4470016;32;33703;-86
2022/08/30 11:51:56;;;;;;;;;;;;;;;32.58;29.56;99309.22;4467400;32;34256;-85
2022/08/30 11:55:02;;;;;;;;;;;;;;;32.85;29.65;99308.97;4450644;32;35106;-84
2022/08/30 11:57:51;;;;;;;;;;;;;;;32.97;29.92;99296.44;4467561;32;33148;-86
2022/08/30 12:00:31;;;;;;;;;;;;;;;32.90;29.51;99298.72;4464127;32;34247;-84
2022/08/30 12:03:02;;;;;;;;;;;;;;;33.49;27.98;99303.97;4452009;32;34286;-85
2022/08/30 12:05:41;;;;;;;;;;;;;;;33.94;28.17;99294.97;4452736;32;34448;-83
2022/08/30 12:08:10;;;;;;;;;;;;;;;34.43;26.66;99285.53;4459277;32;34217;-84
2022/08/30 12:10:39;;;;;;;;;;;;;;;34.31;26.89;99282.03;4453431;32;34320;-87
2022/08/30 12:13:06;;;;;;;;;;;;;;;33.03;27.22;99283.38;4466349;32;33817;-85
2022/08/30 12:15:52;;;;;;;;;;;;;;;34.23;26.64;99282.69;4451397;32;34390;-84
2022/08/30 12:18:27;;;;;;;;;;;;;;;34.20;27.58;99282.94;4464179;32;33601;-84
2022/08/30 12:21:01;;;;;;;;;;;;;;;34.33;26.89;99274.72;4463734;32;34635;-83
2022/08/30 12:23:37;;;;;;;;;;;;;;;33.93;28.16;99277.13;4452218;32;34788;-86
2022/08/30 12:26:13;;;;;;;;;;;;;;;33.41;27.56;99266.94;4448832;32;34072;-86
2022/08/30 12:28:42;;;;;;;;;;;;;;;32.97;28.95;99266.91;4449205;32;33527;-85
2022/08/30 12:31:10;;;;;;;;;;;;;;;33.07;29.24;99266.06;4441648;32;33971;-85
2022/08/30 12:33:40;;;;;;;;;;;;;;;33.36;28.48;99271.78;4450625;32;34296;-83
2022/08/30 12:36:34;;;;;;;;;;;;;;;34.25;27.23;99261.06;4437574;32;33086;-85
2022/08/30 12:39:10;;;;;;;;;;;;;;;34.04;27.99;99253.78;4423179;32;33634;-85
2022/08/30 12:41:38;;;;;;;;;;;;;;;34.11;27.70;99246.91;4451321;32;33718;-86
2022/08/30 12:44:14;;;;;;;;;;;;;;;34.25;27.39;99234.13;4454949;32;35226;-84
2022/08/30 12:46:42;;;;;;;;;;;;;;;34.82;25.92;99233.72;4438815;32;34547;-84
2022/08/30 12:49:11;;;;;;;;;;;;;;;34.26;26.80;99230.47;4437933;32;33708;-84
2022/08/30 12:51:40;;;;;;;;;;;;;;;34.26;27.25;99227.75;4438227;32;34237;-83
2022/08/30 12:54:14;;;;;;;;;;;;;;;34.47;27.19;99228.63;4452065;32;34444;-84
2022/08/30 12:57:02;;;;;;;;;;;;;;;34.62;27.04;99223.78;4437841;32;35258;-84
2022/08/30 12:59:50;;;;;;;;;;;;;;;32.33;29.10;99225.19;4440434;32;33617;-83
2022/08/30 13:02:26;;;;;;;;;;;;;;;33.82;27.30;99222.38;4451661;32;34156;-84
2022/08/30 13:04:55;;;;;;;;;;;;;;;33.49;26.85;99219.75;4444890;32;34911;-82
2022/08/30 13:07:30;;;;;;;;;;;;;;;34.19;26.62;99218.50;4464749;32;34117;-85
2022/08/30 13:10:00;;;;;;;;;;;;;;;34.38;25.97;99215.94;4467001;32;33446;-85